Time;durP1;ratioP1;P1;durP2;ratioP2;P2;SDS_P1;SDS_P2;PMS_P1;PMS_P2;Temp;Humidity;BMP_temperature;BMP_pressure;BME280_temperature;BME280_humidity;BME280_pressure;Samples;Min_cycle;Max_cycle;Signal;HPM_P1;HPM_P2
2022/12/28 00:01:41;;;;;;;;;16.00;13.67;;;;;;;;5095002;27;45480;-67
2022/12/28 00:04:06;;;;;;;;;19.25;14.75;;;;;;;;5095606;27;45584;-66
2022/12/28 00:06:33;;;;;;;;;17.50;14.25;;;;;;;;5095898;27;45476;-66
2022/12/28 00:08:58;;;;;;;;;10.75;10.25;;;;;;;;5096594;27;46592;-66
2022/12/28 00:11:25;;;;;;;;;10.33;10.00;;;;;;;;5096448;27;45485;-65
2022/12/28 00:13:50;;;;;;;;;9.25;7.25;;;;;;;;5100945;27;45432;-66
2022/12/28 00:16:36;;;;;;;;;15.25;11.75;;;;;;;;5093561;27;45470;-67
2022/12/28 00:19:02;;;;;;;;;12.00;11.75;;;;;;;;5094049;27;45697;-65
2022/12/28 00:21:28;;;;;;;;;15.50;10.75;;;;;;;;5095830;27;45418;-66
2022/12/28 00:23:54;;;;;;;;;16.67;13.00;;;;;;;;5096524;27;45783;-66
2022/12/28 00:26:20;;;;;;;;;13.25;12.25;;;;;;;;5096784;27;45310;-69
2022/12/28 00:28:46;;;;;;;;;13.50;11.75;;;;;;;;5096796;27;46508;-70
2022/12/28 00:31:11;;;;;;;;;12.50;11.00;;;;;;;;5095034;27;45410;-68
2022/12/28 00:33:36;;;;;;;;;14.25;11.00;;;;;;;;5095822;27;45780;-67
2022/12/28 00:36:02;;;;;;;;;12.50;12.25;;;;;;;;5096896;27;45430;-68
2022/12/28 00:38:32;;;;;;;;;11.75;10.25;;;;;;;;5097111;27;46322;-68
2022/12/28 00:40:57;;;;;;;;;13.00;12.50;;;;;;;;5097375;27;45421;-66
2022/12/28 00:43:22;;;;;;;;;18.50;11.75;;;;;;;;5097352;27;45424;-70
2022/12/28 00:45:48;;;;;;;;;12.50;10.75;;;;;;;;5097451;27;45509;-68
2022/12/28 00:48:14;;;;;;;;;10.75;10.75;;;;;;;;5096909;27;46578;-70
2022/12/28 00:50:39;;;;;;;;;11.00;9.75;;;;;;;;5099705;27;45390;-66
2022/12/28 00:53:04;;;;;;;;;14.00;11.00;;;;;;;;5100804;27;45235;-68
2022/12/28 00:55:31;;;;;;;;;14.00;12.00;;;;;;;;5100411;27;45519;-66
2022/12/28 00:58:00;;;;;;;;;12.25;11.75;;;;;;;;5100214;27;46221;-66
2022/12/28 01:00:25;;;;;;;;;13.50;9.50;;;;;;;;5099191;27;45434;-65
2022/12/28 01:02:51;;;;;;;;;12.75;9.75;;;;;;;;5094622;27;49085;-67
2022/12/28 01:05:16;;;;;;;;;11.00;10.00;;;;;;;;5100164;27;45346;-66
2022/12/28 01:07:41;;;;;;;;;9.00;9.00;;;;;;;;5109156;27;45419;-65
2022/12/28 01:10:07;;;;;;;;;15.50;10.75;;;;;;;;5100584;27;45408;-66
2022/12/28 01:12:32;;;;;;;;;8.25;5.50;;;;;;;;5100744;27;45500;-66
2022/12/28 01:14:57;;;;;;;;;13.50;11.25;;;;;;;;5100779;27;45513;-66
2022/12/28 01:17:22;;;;;;;;;11.00;10.00;;;;;;;;5100426;27;46449;-66
2022/12/28 01:19:48;;;;;;;;;9.00;7.50;;;;;;;;5100361;27;45184;-66
2022/12/28 01:22:13;;;;;;;;;11.25;9.75;;;;;;;;5100726;27;45793;-66
2022/12/28 01:24:38;;;;;;;;;11.00;7.00;;;;;;;;5099486;27;45262;-66
2022/12/28 01:27:03;;;;;;;;;10.75;9.00;;;;;;;;5100057;27;46337;-66
2022/12/28 01:29:29;;;;;;;;;8.75;7.00;;;;;;;;5098915;27;45326;-66
2022/12/28 01:31:54;;;;;;;;;13.75;9.50;;;;;;;;5099780;27;45444;-66
2022/12/28 01:34:19;;;;;;;;;9.00;8.25;;;;;;;;5099736;27;45581;-66
2022/12/28 01:36:44;;;;;;;;;9.75;7.25;;;;;;;;5100120;27;45499;-66
2022/12/28 01:39:10;;;;;;;;;9.00;8.75;;;;;;;;5097877;27;45520;-67
2022/12/28 01:41:39;;;;;;;;;8.75;6.50;;;;;;;;5100287;27;45574;-67
2022/12/28 01:44:05;;;;;;;;;9.25;6.25;;;;;;;;5098792;27;45404;-66
2022/12/28 01:46:40;;;;;;;;;9.00;8.50;;;;;;;;5099713;27;46216;-67
2022/12/28 01:49:08;;;;;;;;;7.25;5.25;;;;;;;;5100158;27;45401;-66
2022/12/28 01:51:42;;;;;;;;;9.25;6.00;;;;;;;;5099933;27;45220;-69
2022/12/28 01:54:07;;;;;;;;;6.25;6.25;;;;;;;;5099942;27;45426;-69
2022/12/28 01:56:32;;;;;;;;;5.75;5.75;;;;;;;;5098853;27;45366;-69
2022/12/28 01:58:58;;;;;;;;;9.00;6.75;;;;;;;;5098303;27;45294;-69
2022/12/28 02:01:23;;;;;;;;;5.00;4.50;;;;;;;;5099653;27;45448;-69
2022/12/28 02:03:49;;;;;;;;;5.00;5.00;;;;;;;;5081603;27;45351;-69
2022/12/28 02:06:14;;;;;;;;;6.75;6.75;;;;;;;;5098926;27;46611;-69
2022/12/28 02:08:42;;;;;;;;;4.50;4.00;;;;;;;;5099509;27;45330;-69
2022/12/28 02:11:10;;;;;;;;;7.00;5.00;;;;;;;;5099779;27;45472;-69
2022/12/28 02:13:35;;;;;;;;;6.75;5.00;;;;;;;;5098659;27;45331;-69
2022/12/28 02:16:03;;;;;;;;;5.75;5.00;;;;;;;;5099336;27;47391;-70
2022/12/28 02:18:28;;;;;;;;;5.25;4.00;;;;;;;;5098451;27;45370;-69
2022/12/28 02:21:03;;;;;;;;;8.50;5.00;;;;;;;;5099682;27;45222;-69
2022/12/28 02:23:28;;;;;;;;;4.50;4.50;;;;;;;;5099518;27;45509;-70
2022/12/28 02:25:56;;;;;;;;;6.75;5.00;;;;;;;;5099259;27;45540;-70
2022/12/28 02:28:22;;;;;;;;;5.25;5.00;;;;;;;;5098173;27;45360;-70
2022/12/28 02:30:56;;;;;;;;;5.50;4.00;;;;;;;;5097388;27;45371;-69
2022/12/28 02:33:26;;;;;;;;;5.50;5.50;;;;;;;;5098766;27;45301;-69
2022/12/28 02:36:11;;;;;;;;;5.50;5.00;;;;;;;;5078853;27;46223;-69
2022/12/28 02:38:39;;;;;;;;;3.00;3.00;;;;;;;;5099052;27;45338;-70
2022/12/28 02:41:12;;;;;;;;;7.00;4.00;;;;;;;;5099259;27;45299;-69
2022/12/28 02:43:38;;;;;;;;;5.75;5.00;;;;;;;;5099307;27;45395;-69
2022/12/28 02:52:21;;;;;;;;;5.50;4.25;;;;;;;;5078624;28;45445;-70
2022/12/28 02:58:08;;;;;;;;;6.00;4.75;;;;;;;;5077244;28;45397;-70
2022/12/28 03:00:43;;;;;;;;;3.00;3.00;;;;;;;;5090438;27;45500;-67
2022/12/28 03:03:08;;;;;;;;;3.00;3.00;;;;;;;;5098893;27;45483;-66
2022/12/28 03:08:33;;;;;;;;;3.75;3.00;;;;;;;;5098256;27;45414;-67
2022/12/28 03:11:03;;;;;;;;;4.75;4.00;;;;;;;;5098605;27;45354;-68
2022/12/28 03:13:43;;;;;;;;;4.00;4.00;;;;;;;;5096561;27;45248;-68
2022/12/28 03:16:12;;;;;;;;;5.00;4.00;;;;;;;;5098667;27;45394;-68
2022/12/28 03:32:29;;;;;;;;;8.75;3.75;;;;;;;;5097526;27;45364;-68
2022/12/28 03:34:55;;;;;;;;;4.75;4.75;;;;;;;;5098391;27;45150;-68
2022/12/28 03:37:26;;;;;;;;;2.25;2.00;;;;;;;;5097672;27;45462;-69
2022/12/28 03:39:57;;;;;;;;;6.25;3.25;;;;;;;;5098052;27;46249;-69
2022/12/28 03:45:31;;;;;;;;;6.75;3.00;;;;;;;;5098175;27;45367;-69
2022/12/28 03:47:59;;;;;;;;;3.00;3.00;;;;;;;;5097105;27;45289;-69
2022/12/28 03:50:24;;;;;;;;;5.50;3.75;;;;;;;;5097973;27;46392;-69
2022/12/28 03:52:50;;;;;;;;;5.00;4.25;;;;;;;;5098005;27;45407;-69
2022/12/28 03:55:15;;;;;;;;;3.75;3.00;;;;;;;;5095364;27;45354;-70
2022/12/28 03:57:41;;;;;;;;;5.00;4.00;;;;;;;;5098152;27;45406;-70
2022/12/28 04:00:08;;;;;;;;;3.00;3.00;;;;;;;;5097800;27;46143;-70
2022/12/28 04:02:33;;;;;;;;;7.00;4.00;;;;;;;;5097975;27;45362;-70
2022/12/28 04:04:58;;;;;;;;;4.25;3.75;;;;;;;;5097994;27;45586;-68
2022/12/28 04:07:23;;;;;;;;;4.75;4.00;;;;;;;;5098197;27;45376;-69
2022/12/28 04:09:49;;;;;;;;;4.00;3.00;;;;;;;;5096629;27;45425;-68
2022/12/28 04:12:14;;;;;;;;;2.75;2.75;;;;;;;;5096910;27;45302;-68
2022/12/28 04:14:39;;;;;;;;;2.50;2.50;;;;;;;;5097299;27;45401;-68
2022/12/28 04:17:04;;;;;;;;;4.00;4.00;;;;;;;;5097243;27;45577;-68
2022/12/28 04:19:30;;;;;;;;;4.50;4.00;;;;;;;;5097663;27;46629;-68
2022/12/28 04:21:55;;;;;;;;;3.25;3.00;;;;;;;;5097398;27;45394;-68
2022/12/28 04:24:20;;;;;;;;;3.75;3.00;;;;;;;;5098832;27;45405;-68
2022/12/28 04:26:45;;;;;;;;;4.00;3.00;;;;;;;;5101701;27;45307;-68
2022/12/28 04:29:10;;;;;;;;;4.75;3.25;;;;;;;;5100253;27;46324;-68
2022/12/28 04:31:36;;;;;;;;;2.25;2.25;;;;;;;;5101347;27;45359;-68
2022/12/28 04:34:01;;;;;;;;;4.50;4.00;;;;;;;;5101347;27;45359;-68
2022/12/28 04:36:26;;;;;;;;;8.25;3.50;;;;;;;;5101492;27;45414;-68
2022/12/28 04:38:51;;;;;;;;;3.75;2.00;;;;;;;;5100937;27;46336;-68
2022/12/28 04:41:17;;;;;;;;;4.25;3.50;;;;;;;;5100556;27;45393;-68
2022/12/28 04:43:42;;;;;;;;;4.00;3.00;;;;;;;;5101382;27;45357;-68
2022/12/28 04:46:11;;;;;;;;;3.00;3.00;;;;;;;;5099865;27;45312;-68
2022/12/28 04:48:37;;;;;;;;;7.75;3.00;;;;;;;;5100746;27;47451;-69
2022/12/28 04:51:06;;;;;;;;;5.00;3.00;;;;;;;;5094881;27;48574;-68
2022/12/28 04:53:34;;;;;;;;;4.50;3.00;;;;;;;;5085765;27;45391;-68
2022/12/28 04:56:02;;;;;;;;;3.50;2.25;;;;;;;;5080493;28;45358;-68
2022/12/28 04:58:27;;;;;;;;;3.00;3.00;;;;;;;;5080448;28;46326;-68
2022/12/28 05:00:52;;;;;;;;;5.00;2.00;;;;;;;;5084378;27;45464;-68
2022/12/28 05:03:18;;;;;;;;;3.50;2.50;;;;;;;;5096516;27;45463;-67
2022/12/28 05:05:43;;;;;;;;;6.50;4.00;;;;;;;;5087755;27;45505;-68
2022/12/28 05:08:08;;;;;;;;;5.00;3.00;;;;;;;;5079411;27;45462;-67
2022/12/28 05:10:33;;;;;;;;;7.25;3.00;;;;;;;;5088747;27;45529;-67
2022/12/28 05:12:58;;;;;;;;;1.75;1.75;;;;;;;;5089215;27;45564;-68
2022/12/28 05:15:23;;;;;;;;;3.00;2.00;;;;;;;;5090343;27;45430;-66
2022/12/28 05:17:49;;;;;;;;;1.75;1.75;;;;;;;;5094632;27;46355;-68
2022/12/28 05:20:16;;;;;;;;;0.00;0.00;;;;;;;;5100540;27;45410;-67
2022/12/28 05:22:42;;;;;;;;;5.75;3.50;;;;;;;;5100578;27;45304;-67
2022/12/28 05:25:07;;;;;;;;;2.25;1.25;;;;;;;;5100293;27;45364;-67
2022/12/28 05:27:32;;;;;;;;;2.25;2.25;;;;;;;;5100165;27;46602;-67
2022/12/28 05:29:57;;;;;;;;;2.00;2.00;;;;;;;;5100357;27;45315;-67
2022/12/28 05:32:22;;;;;;;;;2.00;2.00;;;;;;;;5094747;27;45838;-68
2022/12/28 05:34:48;;;;;;;;;3.25;2.00;;;;;;;;5098140;27;45488;-68
2022/12/28 05:37:13;;;;;;;;;3.00;2.00;;;;;;;;5098599;27;45605;-67
2022/12/28 05:39:38;;;;;;;;;3.00;1.25;;;;;;;;5100272;27;45519;-67
2022/12/28 05:42:03;;;;;;;;;1.00;1.00;;;;;;;;5100017;27;45370;-67
2022/12/28 05:44:29;;;;;;;;;3.00;1.25;;;;;;;;5100421;27;45320;-67
2022/12/28 05:46:54;;;;;;;;;4.50;2.75;;;;;;;;5099873;27;46597;-67
2022/12/28 05:49:19;;;;;;;;;3.00;3.00;;;;;;;;5099484;27;45252;-67
2022/12/28 05:51:47;;;;;;;;;2.00;1.50;;;;;;;;5099616;27;45468;-67
2022/12/28 05:54:12;;;;;;;;;4.00;2.00;;;;;;;;5100264;27;46298;-67
2022/12/28 05:56:37;;;;;;;;;2.75;2.00;;;;;;;;5099687;27;46625;-67
2022/12/28 05:59:04;;;;;;;;;3.00;2.00;;;;;;;;5099966;27;45542;-67
2022/12/28 06:01:31;;;;;;;;;2.00;2.00;;;;;;;;5099959;27;45333;-67
2022/12/28 06:04:01;;;;;;;;;1.50;1.50;;;;;;;;5099184;27;45757;-67
2022/12/28 06:06:26;;;;;;;;;2.00;2.00;;;;;;;;5099039;27;45544;-67
2022/12/28 06:08:52;;;;;;;;;3.00;1.25;;;;;;;;5095649;27;45197;-67
2022/12/28 06:11:19;;;;;;;;;1.00;1.00;;;;;;;;5098600;27;45583;-67
2022/12/28 06:13:44;;;;;;;;;3.75;2.00;;;;;;;;5099869;27;45563;-67
2022/12/28 06:16:14;;;;;;;;;3.25;3.00;;;;;;;;5099563;27;45335;-67
2022/12/28 06:18:39;;;;;;;;;2.25;1.75;;;;;;;;5080350;27;45468;-67
2022/12/28 06:21:07;;;;;;;;;2.75;1.25;;;;;;;;5099566;27;45346;-67
2022/12/28 06:23:32;;;;;;;;;2.50;2.50;;;;;;;;5097929;27;45407;-67
2022/12/28 06:26:01;;;;;;;;;2.75;1.00;;;;;;;;5099006;27;46305;-67
2022/12/28 06:28:27;;;;;;;;;2.25;2.00;;;;;;;;5099265;27;45430;-67
2022/12/28 06:30:59;;;;;;;;;2.00;1.00;;;;;;;;5098721;27;45715;-67
2022/12/28 06:33:24;;;;;;;;;2.00;2.00;;;;;;;;5098482;27;45444;-67
2022/12/28 06:35:50;;;;;;;;;1.00;1.00;;;;;;;;5099325;27;45840;-67
2022/12/28 06:38:15;;;;;;;;;3.00;2.00;;;;;;;;5099107;27;45426;-67
2022/12/28 06:40:40;;;;;;;;;1.75;1.75;;;;;;;;5098962;27;45406;-67
2022/12/28 06:43:05;;;;;;;;;2.00;2.00;;;;;;;;5099435;27;45775;-67
2022/12/28 06:45:31;;;;;;;;;2.00;2.00;;;;;;;;5099142;27;45496;-67
2022/12/28 06:47:56;;;;;;;;;2.00;2.00;;;;;;;;5097001;27;45611;-67
2022/12/28 06:50:21;;;;;;;;;2.25;1.00;;;;;;;;5099200;27;45410;-67
2022/12/28 06:52:46;;;;;;;;;3.25;1.75;;;;;;;;5097849;27;45401;-66
2022/12/28 06:55:11;;;;;;;;;8.00;2.00;;;;;;;;5099076;27;45404;-67
2022/12/28 06:57:37;;;;;;;;;1.75;1.00;;;;;;;;5097668;27;45969;-67
2022/12/28 07:00:03;;;;;;;;;1.50;1.50;;;;;;;;5099165;27;45382;-67
2022/12/28 07:02:28;;;;;;;;;2.25;2.00;;;;;;;;5098400;27;45398;-67
2022/12/28 07:04:53;;;;;;;;;4.00;1.00;;;;;;;;5098717;27;46227;-67
2022/12/28 07:07:18;;;;;;;;;3.00;3.00;;;;;;;;5098846;27;45383;-67
2022/12/28 07:09:43;;;;;;;;;3.75;1.00;;;;;;;;5098856;27;45196;-67
2022/12/28 07:12:09;;;;;;;;;2.75;1.00;;;;;;;;5097712;27;45521;-67
2022/12/28 07:14:34;;;;;;;;;1.00;1.00;;;;;;;;5098582;27;46377;-67
2022/12/28 07:16:59;;;;;;;;;2.00;2.00;;;;;;;;5098532;27;45311;-67
2022/12/28 07:19:24;;;;;;;;;3.00;1.25;;;;;;;;5098772;27;45394;-67
2022/12/28 07:21:49;;;;;;;;;4.50;2.75;;;;;;;;5098675;27;45207;-67
2022/12/28 07:24:14;;;;;;;;;4.25;2.00;;;;;;;;5098460;27;45455;-67
2022/12/28 07:26:40;;;;;;;;;3.00;1.75;;;;;;;;5097716;27;45476;-67
2022/12/28 07:29:05;;;;;;;;;2.00;0.50;;;;;;;;5097940;27;46454;-67
2022/12/28 07:31:33;;;;;;;;;4.50;2.00;;;;;;;;5098669;27;45509;-67
2022/12/28 07:33:59;;;;;;;;;1.00;1.00;;;;;;;;5098146;27;47727;-67
2022/12/28 07:36:25;;;;;;;;;4.50;2.00;;;;;;;;5098303;27;45560;-67
2022/12/28 07:38:50;;;;;;;;;3.25;1.25;;;;;;;;5098327;27;45442;-67
2022/12/28 07:41:17;;;;;;;;;1.75;1.75;;;;;;;;5097846;27;45495;-67
2022/12/28 07:43:42;;;;;;;;;1.00;1.00;;;;;;;;5097072;27;46825;-67
2022/12/28 07:46:07;;;;;;;;;1.75;1.00;;;;;;;;5098121;27;45284;-67
2022/12/28 07:48:33;;;;;;;;;1.75;1.75;;;;;;;;5098340;27;45506;-67
2022/12/28 07:51:05;;;;;;;;;2.75;1.00;;;;;;;;5098480;27;45414;-67
2022/12/28 07:53:30;;;;;;;;;1.75;1.75;;;;;;;;5096315;27;47409;-66
2022/12/28 07:55:55;;;;;;;;;2.25;2.25;;;;;;;;5098050;27;45472;-66
2022/12/28 07:58:22;;;;;;;;;3.75;3.00;;;;;;;;5097450;27;45468;-67
2022/12/28 08:00:47;;;;;;;;;3.25;3.25;;;;;;;;5096524;27;45577;-66
2022/12/28 08:03:12;;;;;;;;;3.50;2.50;;;;;;;;5097726;27;47462;-67
2022/12/28 08:05:37;;;;;;;;;3.25;1.25;;;;;;;;5097857;27;45341;-67
2022/12/28 08:08:03;;;;;;;;;1.50;1.50;;;;;;;;5097923;27;45450;-67
2022/12/28 08:10:28;;;;;;;;;4.50;2.00;;;;;;;;5098075;27;45310;-67
2022/12/28 08:12:53;;;;;;;;;4.00;2.00;;;;;;;;5097649;27;46715;-66
2022/12/28 08:15:18;;;;;;;;;1.00;1.00;;;;;;;;5097210;27;45383;-67
2022/12/28 08:17:43;;;;;;;;;4.25;3.00;;;;;;;;5094015;27;45299;-67
2022/12/28 08:20:09;;;;;;;;;1.00;1.00;;;;;;;;5097441;27;45142;-67
2022/12/28 08:22:34;;;;;;;;;3.75;3.00;;;;;;;;5097346;27;46652;-67
2022/12/28 08:24:59;;;;;;;;;1.50;1.50;;;;;;;;5097843;27;45376;-66
2022/12/28 08:27:27;;;;;;;;;2.00;1.50;;;;;;;;5096513;27;45151;-67
2022/12/28 08:29:52;;;;;;;;;2.75;2.00;;;;;;;;5097688;27;45437;-66
2022/12/28 08:32:18;;;;;;;;;3.50;2.25;;;;;;;;5096053;27;46680;-66
2022/12/28 08:34:43;;;;;;;;;1.75;1.75;;;;;;;;5097558;27;45335;-67
2022/12/28 08:37:08;;;;;;;;;2.00;1.00;;;;;;;;5097729;27;45291;-66
2022/12/28 08:39:33;;;;;;;;;5.00;3.00;;;;;;;;5097663;27;45374;-67
2022/12/28 08:41:58;;;;;;;;;3.00;2.50;;;;;;;;5096403;27;45559;-67
2022/12/28 08:44:23;;;;;;;;;2.00;2.00;;;;;;;;5097248;27;45348;-66
2022/12/28 08:46:49;;;;;;;;;3.00;3.00;;;;;;;;5096760;27;45225;-67
2022/12/28 08:49:14;;;;;;;;;2.00;2.00;;;;;;;;5096938;27;45448;-67
2022/12/28 08:51:40;;;;;;;;;2.00;2.00;;;;;;;;5095530;27;47350;-66
2022/12/28 08:54:06;;;;;;;;;4.50;2.25;;;;;;;;5097080;27;45437;-66
2022/12/28 08:56:32;;;;;;;;;2.50;2.00;;;;;;;;5097274;27;45343;-66
2022/12/28 08:58:58;;;;;;;;;4.00;2.00;;;;;;;;5097222;27;45460;-66
2022/12/28 09:01:27;;;;;;;;;4.50;3.00;;;;;;;;5096414;27;45752;-66
2022/12/28 09:03:54;;;;;;;;;1.00;1.00;;;;;;;;5097036;27;45376;-66
2022/12/28 09:06:21;;;;;;;;;3.00;2.00;;;;;;;;5093933;27;45349;-66
2022/12/28 09:08:53;;;;;;;;;4.00;2.00;;;;;;;;5097242;27;45366;-66
2022/12/28 09:11:19;;;;;;;;;3.00;3.00;;;;;;;;5098947;27;46652;-66
2022/12/28 09:13:44;;;;;;;;;3.00;3.00;;;;;;;;5100601;27;45484;-66
2022/12/28 09:16:11;;;;;;;;;4.75;3.75;;;;;;;;5100713;27;45341;-66
2022/12/28 09:18:36;;;;;;;;;2.00;2.00;;;;;;;;5099938;27;45248;-66
2022/12/28 09:21:14;;;;;;;;;1.00;1.00;;;;;;;;5099908;27;46189;-66
2022/12/28 09:23:40;;;;;;;;;7.00;4.00;;;;;;;;5099492;27;45239;-66
2022/12/28 09:26:06;;;;;;;;;3.50;3.50;;;;;;;;5100483;27;45216;-66
2022/12/28 09:28:31;;;;;;;;;3.75;3.75;;;;;;;;5100373;27;45367;-66
2022/12/28 09:30:57;;;;;;;;;17.00;14.00;;;;;;;;5100009;27;47444;-66
2022/12/28 09:36:06;;;;;;;;;4.00;4.00;;;;;;;;5100404;27;45364;-66
2022/12/28 09:38:31;;;;;;;;;7.00;6.67;;;;;;;;5100319;27;45165;-66
2022/12/28 09:40:57;;;;;;;;;3.75;3.00;;;;;;;;5098469;27;45610;-66
2022/12/28 09:43:22;;;;;;;;;6.25;2.00;;;;;;;;5100172;27;45387;-66
2022/12/28 09:45:48;;;;;;;;;3.50;3.00;;;;;;;;5099070;27;45549;-66
2022/12/28 09:48:16;;;;;;;;;3.50;3.50;;;;;;;;5099987;27;45467;-66
2022/12/28 09:50:42;;;;;;;;;6.25;4.50;;;;;;;;5098837;27;46747;-67
2022/12/28 09:53:22;;;;;;;;;3.00;2.25;;;;;;;;5094491;27;45445;-66
2022/12/28 09:55:53;;;;;;;;;3.50;3.00;;;;;;;;5079412;28;45331;-67
2022/12/28 09:58:19;;;;;;;;;7.00;3.00;;;;;;;;5079691;28;45386;-66
2022/12/28 10:00:46;;;;;;;;;3.00;2.00;;;;;;;;5088677;27;46185;-67
2022/12/28 10:03:20;;;;;;;;;5.00;2.25;;;;;;;;5098683;27;45417;-67
2022/12/28 10:05:46;;;;;;;;;4.75;2.00;;;;;;;;5098899;27;45395;-66
2022/12/28 10:08:13;;;;;;;;;2.75;2.00;;;;;;;;5099114;27;45224;-67
2022/12/28 10:10:40;;;;;;;;;5.00;1.00;;;;;;;;5098397;27;45449;-66
2022/12/28 10:13:17;;;;;;;;;3.75;2.00;;;;;;;;5099440;27;45319;-67
2022/12/28 10:15:42;;;;;;;;;3.00;2.50;;;;;;;;5097676;27;45391;-66
2022/12/28 10:18:07;;;;;;;;;1.75;1.75;;;;;;;;5105064;27;45481;-67
2022/12/28 10:20:33;;;;;;;;;3.00;2.00;;;;;;;;5119842;27;46249;-67
2022/12/28 10:22:58;;;;;;;;;3.00;3.00;;;;;;;;5106920;27;45378;-67
2022/12/28 10:25:25;;;;;;;;;2.50;2.00;;;;;;;;5099804;27;45492;-67
2022/12/28 10:27:50;;;;;;;;;3.00;3.00;;;;;;;;5099667;27;45457;-67
2022/12/28 10:30:25;;;;;;;;;4.00;4.00;;;;;;;;5099013;27;45666;-67
2022/12/28 10:32:55;;;;;;;;;1.00;1.00;;;;;;;;5099311;27;45275;-66
2022/12/28 10:35:25;;;;;;;;;2.75;1.75;;;;;;;;5098743;27;45422;-67
2022/12/28 10:37:51;;;;;;;;;1.00;1.00;;;;;;;;5098253;27;45379;-67
2022/12/28 10:40:22;;;;;;;;;2.00;2.00;;;;;;;;5098321;27;45423;-67
2022/12/28 10:42:50;;;;;;;;;3.00;2.00;;;;;;;;5095879;27;45578;-67
2022/12/28 10:45:22;;;;;;;;;2.00;2.00;;;;;;;;5087904;27;45665;-66
2022/12/28 10:47:49;;;;;;;;;6.00;3.00;;;;;;;;5082398;27;46270;-65
2022/12/28 10:50:32;;;;;;;;;2.00;2.00;;;;;;;;5097768;27;46900;-64
2022/12/28 10:52:58;;;;;;;;;2.00;1.25;;;;;;;;5098952;27;45320;-64
2022/12/28 10:55:30;;;;;;;;;2.00;2.00;;;;;;;;5096685;27;45434;-66
2022/12/28 10:58:13;;;;;;;;;5.00;2.25;;;;;;;;5096795;27;45395;-65
2022/12/28 11:00:38;;;;;;;;;2.00;1.00;;;;;;;;5097490;27;46461;-65
2022/12/28 11:03:15;;;;;;;;;6.00;6.00;;;;;;;;5098347;27;45179;-64
2022/12/28 11:05:41;;;;;;;;;2.25;2.00;;;;;;;;5095660;27;45400;-64
2022/12/28 11:08:06;;;;;;;;;3.25;3.00;;;;;;;;5098354;27;45513;-63
2022/12/28 11:10:31;;;;;;;;;5.00;2.50;;;;;;;;5097297;27;46302;-64
2022/12/28 11:12:58;;;;;;;;;1.50;1.50;;;;;;;;5098048;27;45375;-64
2022/12/28 11:15:24;;;;;;;;;6.00;3.50;;;;;;;;5094378;27;45485;-65
2022/12/28 11:17:53;;;;;;;;;2.00;2.00;;;;;;;;5096455;27;45264;-66
2022/12/28 11:20:19;;;;;;;;;3.25;2.00;;;;;;;;5096478;27;46557;-65
2022/12/28 11:22:45;;;;;;;;;3.50;2.50;;;;;;;;5095650;27;45501;-67
2022/12/28 11:25:14;;;;;;;;;3.50;2.25;;;;;;;;5099546;27;45372;-66
2022/12/28 11:27:40;;;;;;;;;5.00;3.75;;;;;;;;5097956;27;45320;-67
2022/12/28 11:30:05;;;;;;;;;5.25;4.25;;;;;;;;5096399;27;45360;-67
2022/12/28 11:32:37;;;;;;;;;1.75;1.00;;;;;;;;5093769;27;45438;-67
2022/12/28 11:35:03;;;;;;;;;3.00;2.00;;;;;;;;5097098;27;45461;-65
2022/12/28 11:37:28;;;;;;;;;7.00;6.25;;;;;;;;5098524;27;45322;-65
2022/12/28 11:39:53;;;;;;;;;5.00;2.00;;;;;;;;5097357;27;46626;-65
2022/12/28 11:42:30;;;;;;;;;4.50;3.00;;;;;;;;5098266;27;45438;-66
2022/12/28 11:44:56;;;;;;;;;3.00;1.75;;;;;;;;5096123;27;45565;-65
2022/12/28 11:47:24;;;;;;;;;1.75;1.75;;;;;;;;5097052;27;45534;-66
2022/12/28 11:49:50;;;;;;;;;2.50;2.50;;;;;;;;5096454;27;47154;-68
2022/12/28 11:52:15;;;;;;;;;0.25;0.25;;;;;;;;5094033;27;45510;-68
2022/12/28 11:54:51;;;;;;;;;5.25;2.00;;;;;;;;5096622;27;45359;-68
2022/12/28 11:57:31;;;;;;;;;2.25;2.25;;;;;;;;5097752;27;45269;-66
2022/12/28 12:00:19;;;;;;;;;4.50;3.00;;;;;;;;5095315;27;45730;-66
2022/12/28 12:02:55;;;;;;;;;2.50;1.50;;;;;;;;5080644;27;45451;-65
2022/12/28 12:05:36;;;;;;;;;3.25;1.50;;;;;;;;5096188;27;45441;-65
2022/12/28 12:08:21;;;;;;;;;6.50;3.00;;;;;;;;5095397;27;45687;-63
2022/12/28 12:10:47;;;;;;;;;2.75;2.00;;;;;;;;5097104;27;47448;-65
2022/12/28 12:13:24;;;;;;;;;6.00;2.00;;;;;;;;5096975;27;45900;-64
2022/12/28 12:15:55;;;;;;;;;4.00;2.00;;;;;;;;5095879;27;45483;-64
2022/12/28 12:18:22;;;;;;;;;4.00;3.00;;;;;;;;5097989;27;45574;-65
2022/12/28 12:20:52;;;;;;;;;2.50;1.00;;;;;;;;5096803;27;45452;-65
2022/12/28 12:23:20;;;;;;;;;1.50;0.50;;;;;;;;5095945;27;45492;-65
2022/12/28 12:25:47;;;;;;;;;2.00;2.00;;;;;;;;5091747;27;46142;-65
2022/12/28 12:28:31;;;;;;;;;1.75;1.75;;;;;;;;5096225;27;45478;-66
2022/12/28 12:30:57;;;;;;;;;3.00;3.00;;;;;;;;5093069;27;45890;-66
2022/12/28 12:33:28;;;;;;;;;3.00;3.00;;;;;;;;5093926;27;45449;-64
2022/12/28 12:35:56;;;;;;;;;4.00;2.75;;;;;;;;5095574;27;45452;-66
2022/12/28 12:38:40;;;;;;;;;3.50;3.50;;;;;;;;5094113;27;45481;-66
2022/12/28 12:41:43;;;;;;;;;2.25;2.25;;;;;;;;5096220;27;46015;-66
2022/12/28 12:44:28;;;;;;;;;5.00;2.00;;;;;;;;5034075;28;45759;-67
2022/12/28 12:46:57;;;;;;;;;1.75;1.75;;;;;;;;5037162;28;45310;-64
2022/12/28 12:49:40;;;;;;;;;1.00;1.00;;;;;;;;5036576;28;45362;-68
2022/12/28 12:52:08;;;;;;;;;2.00;2.00;;;;;;;;5036243;28;45504;-67
2022/12/28 12:54:42;;;;;;;;;5.75;1.25;;;;;;;;5035553;28;45567;-66
2022/12/28 12:57:19;;;;;;;;;4.25;2.75;;;;;;;;5036228;28;45314;-65
2022/12/28 12:59:47;;;;;;;;;2.00;2.00;;;;;;;;5037811;28;45546;-65
2022/12/28 13:02:26;;;;;;;;;5.00;3.00;;;;;;;;5036422;28;45471;-65
2022/12/28 13:04:51;;;;;;;;;6.00;2.50;;;;;;;;5029985;28;45341;-64
2022/12/28 13:07:19;;;;;;;;;2.00;2.00;;;;;;;;5033474;28;46367;-65
2022/12/28 13:09:44;;;;;;;;;3.00;1.00;;;;;;;;5035276;28;45460;-64
2022/12/28 13:12:14;;;;;;;;;1.00;1.00;;;;;;;;5037476;28;46696;-65
2022/12/28 13:14:42;;;;;;;;;2.50;2.00;;;;;;;;5058117;27;45254;-64
2022/12/28 13:17:12;;;;;;;;;3.00;2.00;;;;;;;;5095251;27;45406;-65
2022/12/28 13:19:37;;;;;;;;;1.25;1.25;;;;;;;;5099339;27;45257;-66
2022/12/28 13:22:03;;;;;;;;;2.00;2.00;;;;;;;;5100249;27;45482;-66
2022/12/28 13:24:29;;;;;;;;;3.50;2.00;;;;;;;;5096829;27;45503;-66
2022/12/28 13:26:55;;;;;;;;;2.25;2.00;;;;;;;;5098648;27;46018;-63
2022/12/28 13:29:22;;;;;;;;;3.00;2.00;;;;;;;;5098421;27;45417;-67
2022/12/28 13:31:50;;;;;;;;;2.50;2.50;;;;;;;;5093679;27;46171;-64
2022/12/28 13:34:15;;;;;;;;;6.75;3.25;;;;;;;;5099114;27;45407;-65
2022/12/28 13:36:56;;;;;;;;;6.50;4.75;;;;;;;;5100261;27;45307;-64
2022/12/28 13:39:22;;;;;;;;;2.00;2.00;;;;;;;;5096464;27;45304;-66
2022/12/28 13:41:56;;;;;;;;;7.00;7.00;;;;;;;;5099345;27;46571;-67
2022/12/28 13:44:31;;;;;;;;;1.50;1.00;;;;;;;;5100212;27;45346;-66
2022/12/28 13:47:09;;;;;;;;;2.50;2.00;;;;;;;;5096389;27;45291;-64
2022/12/28 13:49:43;;;;;;;;;6.50;3.50;;;;;;;;5093571;27;45444;-65
2022/12/28 13:52:12;;;;;;;;;3.00;3.00;;;;;;;;5099652;27;46726;-64
2022/12/28 13:54:38;;;;;;;;;0.50;0.00;;;;;;;;5099925;27;45593;-67
2022/12/28 13:57:05;;;;;;;;;2.00;2.00;;;;;;;;5099532;27;45252;-65
2022/12/28 13:59:30;;;;;;;;;6.00;1.75;;;;;;;;5096764;27;45444;-64
2022/12/28 14:01:55;;;;;;;;;3.25;1.75;;;;;;;;5095261;27;45485;-67
2022/12/28 14:04:22;;;;;;;;;3.25;2.00;;;;;;;;5098951;27;45379;-66
2022/12/28 14:06:48;;;;;;;;;4.00;4.00;;;;;;;;5095032;27;47044;-66
2022/12/28 14:09:14;;;;;;;;;5.00;3.25;;;;;;;;5097727;27;45456;-66
2022/12/28 14:11:42;;;;;;;;;4.00;3.00;;;;;;;;5095029;27;46590;-66
2022/12/28 14:14:09;;;;;;;;;4.00;3.50;;;;;;;;5096339;27;45496;-66
2022/12/28 14:16:34;;;;;;;;;3.00;3.00;;;;;;;;5099116;27;45450;-66
2022/12/28 14:19:01;;;;;;;;;7.00;3.25;;;;;;;;5096478;27;45525;-66
2022/12/28 14:21:30;;;;;;;;;3.75;3.75;;;;;;;;5096019;27;46624;-63
2022/12/28 14:24:01;;;;;;;;;11.50;9.75;;;;;;;;5097728;27;45391;-65
2022/12/28 14:26:29;;;;;;;;;5.25;3.00;;;;;;;;5099048;27;45418;-66
2022/12/28 14:28:54;;;;;;;;;2.75;2.75;;;;;;;;5098681;27;45352;-66
2022/12/28 14:31:23;;;;;;;;;4.25;4.25;;;;;;;;5099304;27;46278;-66
2022/12/28 14:33:56;;;;;;;;;5.00;3.00;;;;;;;;5099263;27;45330;-67
2022/12/28 14:36:29;;;;;;;;;4.00;4.00;;;;;;;;5091252;27;45560;-67
2022/12/28 14:38:55;;;;;;;;;3.00;3.00;;;;;;;;5094861;27;45468;-65
2022/12/28 14:41:40;;;;;;;;;5.00;4.25;;;;;;;;5098306;27;45337;-65
2022/12/28 14:44:12;;;;;;;;;3.25;3.25;;;;;;;;5098588;27;45398;-64
2022/12/28 14:46:39;;;;;;;;;3.00;3.00;;;;;;;;5094964;27;45472;-67
2022/12/28 14:49:22;;;;;;;;;3.50;3.50;;;;;;;;5097544;27;45485;-66
2022/12/28 14:51:48;;;;;;;;;7.00;4.75;;;;;;;;5092944;27;45589;-64
2022/12/28 14:54:19;;;;;;;;;3.00;3.00;;;;;;;;5095909;27;45442;-65
2022/12/28 14:57:04;;;;;;;;;8.50;6.00;;;;;;;;5095251;27;45432;-67
2022/12/28 14:59:35;;;;;;;;;7.25;4.25;;;;;;;;5095823;27;45570;-65
2022/12/28 15:02:02;;;;;;;;;4.00;4.00;;;;;;;;5103169;27;45374;-64
2022/12/28 15:04:27;;;;;;;;;5.75;4.00;;;;;;;;5096816;27;45421;-66
2022/12/28 15:06:53;;;;;;;;;6.25;4.00;;;;;;;;5097524;27;45314;-68
2022/12/28 15:09:18;;;;;;;;;4.00;4.00;;;;;;;;5091909;27;45442;-66
2022/12/28 15:11:44;;;;;;;;;11.67;9.33;;;;;;;;5093966;27;45477;-64
2022/12/28 15:14:10;;;;;;;;;4.50;4.50;;;;;;;;5093491;27;45549;-63
2022/12/28 15:16:36;;;;;;;;;6.75;5.25;;;;;;;;5097836;27;46237;-67